createdAt,value
2019-04-01T00:01:55.484Z,2.60
2019-04-01T00:04:22.053Z,2.40
2019-04-01T00:06:48.607Z,2.63
2019-04-01T00:09:15.088Z,2.60
2019-04-01T00:11:41.484Z,2.33
2019-04-01T00:14:10.435Z,2.40
2019-04-01T00:16:37.000Z,2.00
2019-04-01T00:19:03.828Z,2.60
2019-04-01T00:21:30.200Z,2.87
2019-04-01T00:23:56.518Z,2.87
2019-04-01T00:26:22.863Z,2.60
2019-04-01T00:28:49.241Z,2.50
2019-04-01T00:31:15.638Z,2.90
2019-04-01T00:33:42.280Z,2.73
2019-04-01T00:36:08.800Z,3.07
2019-04-01T00:38:35.093Z,2.83
2019-04-01T00:41:01.615Z,2.80
2019-04-01T00:43:46.529Z,3.33
2019-04-01T00:46:14.233Z,2.63
2019-04-01T00:48:40.661Z,3.30
2019-04-01T00:51:07.114Z,3.10
2019-04-01T00:53:33.577Z,2.87
2019-04-01T00:55:59.966Z,3.17
2019-04-01T00:58:26.575Z,2.13
2019-04-01T01:00:53.001Z,3.37
2019-04-01T01:03:19.391Z,3.00
2019-04-01T01:05:45.795Z,2.67
2019-04-01T01:08:12.233Z,2.80
2019-04-01T01:10:38.791Z,2.67
2019-04-01T01:13:05.391Z,2.70
2019-04-01T01:15:31.737Z,2.93
2019-04-01T01:17:58.251Z,3.50
2019-04-01T01:20:24.816Z,3.00
2019-04-01T01:22:51.170Z,3.23
2019-04-01T01:25:17.579Z,2.70
2019-04-01T01:27:44.086Z,2.53
2019-04-01T01:30:10.827Z,2.93
2019-04-01T01:32:37.103Z,3.43
2019-04-01T01:35:04.613Z,2.80
2019-04-01T01:37:31.020Z,3.27
2019-04-01T01:39:57.588Z,2.80
2019-04-01T01:42:23.890Z,3.30
2019-04-01T01:44:50.515Z,3.03
2019-04-01T01:47:16.916Z,2.77
2019-04-01T01:49:43.264Z,3.17
2019-04-01T01:52:09.563Z,3.00
2019-04-01T01:54:36.101Z,2.77
2019-04-01T01:57:02.601Z,2.40
2019-04-01T01:59:28.901Z,2.77
2019-04-01T02:01:55.309Z,2.47
2019-04-01T02:04:21.605Z,2.57
2019-04-01T02:06:48.192Z,3.00
2019-04-01T02:09:14.565Z,2.70
2019-04-01T02:11:41.072Z,2.87
2019-04-01T02:14:07.479Z,2.53
2019-04-01T02:16:33.956Z,2.77
2019-04-01T02:19:00.661Z,5.13
2019-04-01T02:21:27.062Z,3.53
2019-04-01T02:23:53.427Z,2.70
2019-04-01T02:26:19.875Z,2.30
2019-04-01T02:28:46.270Z,2.50
2019-04-01T02:31:12.801Z,2.70
2019-04-01T02:33:39.211Z,2.83
2019-04-01T02:36:05.518Z,2.73
2019-04-01T02:38:31.887Z,2.80
2019-04-01T02:40:58.498Z,3.43
2019-04-01T02:43:24.980Z,3.07
2019-04-01T02:45:51.692Z,2.90
2019-04-01T02:48:18.160Z,2.60
2019-04-01T02:50:44.602Z,2.70
2019-04-01T02:53:11.237Z,2.60
2019-04-01T02:55:37.742Z,2.80
2019-04-01T02:58:04.221Z,2.67
2019-04-01T03:00:30.803Z,2.43
2019-04-01T03:02:57.231Z,7.73
2019-04-01T03:05:23.644Z,37.30
2019-04-01T03:07:50.447Z,8.67
2019-04-01T03:10:17.065Z,4.27
2019-04-01T03:12:43.648Z,3.33
2019-04-01T03:15:09.964Z,2.90
2019-04-01T03:17:36.484Z,3.03
2019-04-01T03:20:05.581Z,3.17
2019-04-01T03:22:32.226Z,3.10
2019-04-01T03:24:58.629Z,2.93
2019-04-01T03:27:25.173Z,2.70
2019-04-01T03:29:51.774Z,2.60
2019-04-01T03:32:18.248Z,2.77
2019-04-01T03:34:44.710Z,3.20
2019-04-01T03:37:10.986Z,3.10
2019-04-01T03:39:37.485Z,3.00
2019-04-01T03:42:03.834Z,2.87
2019-04-01T03:44:30.266Z,3.40
2019-04-01T03:46:56.645Z,3.20
2019-04-01T03:49:23.164Z,3.00
2019-04-01T03:51:49.636Z,3.03
2019-04-01T03:54:16.104Z,3.20
2019-04-01T03:56:42.526Z,2.43
2019-04-01T03:59:09.007Z,3.00
2019-04-01T04:01:35.425Z,2.60
2019-04-01T04:04:02.045Z,2.93
2019-04-01T04:06:30.641Z,2.90
2019-04-01T04:09:01.566Z,2.87
2019-04-01T04:11:25.837Z,2.43
2019-04-01T04:13:52.370Z,4.00
2019-04-01T04:16:18.886Z,3.00
2019-04-01T04:18:45.699Z,2.73
2019-04-01T04:21:12.269Z,3.03
2019-04-01T04:23:38.540Z,3.47
2019-04-01T04:26:05.229Z,2.90
2019-04-01T04:28:31.905Z,2.90
2019-04-01T04:30:58.680Z,3.00
2019-04-01T04:33:25.135Z,2.97
2019-04-01T04:35:51.680Z,3.00
2019-04-01T04:38:18.036Z,2.57
2019-04-01T04:40:44.583Z,2.80
2019-04-01T04:43:11.043Z,2.50
2019-04-01T04:45:37.650Z,2.97
2019-04-01T04:48:04.241Z,2.63
2019-04-01T04:50:30.804Z,3.37
2019-04-01T04:52:57.511Z,3.00
2019-04-01T04:55:24.151Z,3.10
2019-04-01T04:57:50.798Z,2.60
2019-04-01T05:00:17.474Z,2.77
2019-04-01T05:02:44.060Z,3.10
2019-04-01T05:05:10.758Z,2.80
2019-04-01T05:07:37.220Z,2.90
2019-04-01T05:10:06.961Z,2.50
2019-04-01T05:12:33.639Z,2.60
2019-04-01T05:15:00.476Z,3.17
2019-04-01T05:17:27.050Z,3.10
2019-04-01T05:19:53.471Z,3.03
2019-04-01T05:22:20.882Z,3.13
2019-04-01T05:24:47.712Z,2.70
2019-04-01T05:27:18.474Z,2.63
2019-04-01T05:29:47.632Z,2.27
2019-04-01T05:32:16.357Z,2.80
2019-04-01T05:34:43.891Z,3.07
2019-04-01T05:37:10.194Z,4.90
2019-04-01T05:39:36.857Z,3.07
2019-04-01T05:42:03.591Z,2.53
2019-04-01T05:44:30.089Z,2.70
2019-04-01T05:46:56.698Z,2.57
2019-04-01T05:49:23.185Z,2.80
2019-04-01T05:51:49.856Z,3.13
2019-04-01T05:54:16.461Z,2.80
2019-04-01T05:56:43.041Z,2.60
2019-04-01T05:59:09.697Z,3.10
2019-04-01T06:01:38.440Z,3.27
2019-04-01T06:04:05.060Z,3.03
2019-04-01T06:06:31.935Z,2.90
2019-04-01T06:08:58.587Z,2.40
2019-04-01T06:11:25.711Z,2.73
2019-04-01T06:13:52.663Z,3.10
2019-04-01T06:16:19.453Z,3.07
2019-04-01T06:18:46.574Z,2.80
2019-04-01T06:21:13.114Z,2.83
2019-04-01T06:23:40.259Z,3.40
2019-04-01T06:26:06.767Z,2.50
2019-04-01T06:28:33.328Z,3.17
2019-04-01T06:30:59.783Z,3.23
2019-04-01T06:33:26.693Z,3.27
2019-04-01T06:35:53.206Z,3.03
2019-04-01T06:38:19.984Z,8.53
2019-04-01T06:40:47.223Z,3.30
2019-04-01T06:43:13.959Z,3.13
2019-04-01T06:45:40.533Z,2.97
2019-04-01T06:48:07.150Z,4.07
2019-04-01T06:50:33.757Z,3.00
2019-04-01T06:53:00.245Z,3.10
2019-04-01T06:55:26.804Z,3.50
2019-04-01T06:57:53.585Z,3.57
2019-04-01T07:00:20.107Z,3.80
2019-04-01T07:02:46.805Z,3.83
2019-04-01T07:05:13.430Z,3.47
2019-04-01T07:07:39.945Z,3.60
2019-04-01T07:10:06.977Z,3.40
2019-04-01T07:12:33.584Z,3.67
2019-04-01T07:15:00.371Z,4.30
2019-04-01T07:17:27.024Z,3.63
2019-04-01T07:19:53.646Z,4.13
2019-04-01T07:22:20.384Z,3.57
2019-04-01T07:24:46.990Z,3.87
2019-04-01T07:27:13.557Z,3.83
2019-04-01T07:29:40.126Z,4.20
2019-04-01T07:32:06.761Z,3.50
2019-04-01T07:34:33.280Z,3.73
2019-04-01T07:36:59.926Z,3.87
2019-04-01T07:39:26.446Z,3.20
2019-04-01T07:41:53.064Z,3.23
2019-04-01T07:44:20.154Z,3.50
2019-04-01T07:46:46.806Z,3.63
2019-04-01T07:49:13.187Z,3.20
2019-04-01T07:51:39.942Z,3.73
2019-04-01T07:54:06.529Z,3.73
2019-04-01T07:56:33.087Z,3.90
2019-04-01T07:58:59.607Z,3.47
2019-04-01T08:01:26.234Z,3.37
2019-04-01T08:03:52.820Z,3.43
2019-04-01T08:06:19.515Z,2.90
2019-04-01T08:08:46.481Z,3.20
2019-04-01T08:11:13.184Z,3.33
2019-04-01T08:13:39.746Z,3.30
2019-04-01T08:16:06.437Z,3.03
2019-04-01T08:18:34.039Z,3.07
2019-04-01T08:21:00.961Z,3.00
2019-04-01T08:23:27.567Z,2.90
2019-04-01T08:25:54.176Z,3.47
2019-04-01T08:28:23.637Z,3.40
2019-04-01T08:30:49.233Z,3.43
2019-04-01T08:33:15.737Z,3.43
2019-04-01T08:35:42.333Z,3.53
2019-04-01T08:38:08.961Z,2.77
2019-04-01T08:40:35.662Z,3.30
2019-04-01T08:43:02.387Z,3.40
2019-04-01T08:45:28.985Z,4.47
2019-04-01T08:47:55.800Z,3.50
2019-04-01T08:50:22.616Z,3.70
2019-04-01T08:52:49.269Z,3.60
2019-04-01T08:55:15.978Z,3.70
2019-04-01T08:57:42.542Z,3.57
2019-04-01T09:00:09.545Z,3.83
2019-04-01T09:02:36.249Z,3.80
2019-04-01T09:05:03.891Z,3.90
2019-04-01T09:07:30.339Z,4.53
2019-04-01T09:09:57.349Z,4.17
2019-04-01T09:12:25.402Z,5.03
2019-04-01T09:14:51.837Z,5.37
2019-04-01T09:17:18.816Z,4.10
2019-04-01T09:19:45.352Z,4.10
2019-04-01T09:22:11.857Z,4.43
2019-04-01T09:24:38.427Z,4.13
2019-04-01T09:27:04.901Z,4.60
2019-04-01T09:29:31.457Z,3.77
2019-04-01T09:31:57.946Z,4.37
2019-04-01T09:34:24.520Z,4.47
2019-04-01T09:36:50.823Z,4.13
2019-04-01T09:39:17.354Z,4.30
2019-04-01T09:41:43.965Z,3.93
2019-04-01T09:44:10.639Z,4.77
2019-04-01T09:46:38.168Z,4.13
2019-04-01T09:49:04.619Z,4.60
2019-04-01T09:51:31.025Z,5.07
2019-04-01T09:53:57.427Z,5.33
2019-04-01T09:56:24.061Z,4.57
2019-04-01T09:58:50.597Z,5.53
2019-04-01T10:01:17.155Z,4.53
2019-04-01T10:03:43.778Z,4.63
2019-04-01T10:06:10.680Z,5.27
2019-04-01T10:08:44.706Z,4.73
2019-04-01T10:11:05.697Z,4.73
2019-04-01T10:13:32.310Z,4.50
2019-04-01T10:15:58.836Z,4.70
2019-04-01T10:18:25.391Z,4.47
2019-04-01T10:20:52.129Z,4.60
2019-04-01T10:23:18.842Z,4.40
2019-04-01T10:25:45.397Z,5.23
2019-04-01T10:28:11.927Z,4.80
2019-04-01T10:30:38.512Z,4.50
2019-04-01T10:33:05.070Z,4.50
2019-04-01T10:35:31.847Z,4.70
2019-04-01T10:37:58.381Z,4.53
2019-04-01T10:40:24.930Z,5.00
2019-04-01T10:42:51.440Z,4.20
2019-04-01T10:45:18.256Z,4.47
2019-04-01T10:47:44.831Z,5.77
2019-04-01T10:50:12.168Z,4.43
2019-04-01T10:52:38.891Z,4.30
2019-04-01T10:55:06.288Z,4.67
2019-04-01T10:57:33.097Z,5.30
2019-04-01T10:59:59.575Z,5.23
2019-04-01T11:02:26.212Z,4.73
2019-04-01T11:04:52.812Z,4.73
2019-04-01T11:07:19.454Z,4.77
2019-04-01T11:09:46.115Z,5.10
2019-04-01T11:12:12.657Z,4.87
2019-04-01T11:14:39.267Z,4.60
2019-04-01T11:17:05.937Z,4.67
2019-04-01T11:19:32.247Z,4.60
2019-04-01T11:21:58.804Z,4.63
2019-04-01T11:24:25.227Z,4.90
2019-04-01T11:26:51.764Z,4.80
2019-04-01T11:29:18.268Z,4.90
2019-04-01T11:31:44.766Z,4.93
2019-04-01T11:34:11.393Z,4.97
2019-04-01T11:36:38.059Z,4.90
2019-04-01T11:39:05.747Z,4.93
2019-04-01T11:41:32.274Z,4.30
2019-04-01T11:43:59.140Z,4.30
2019-04-01T11:46:25.583Z,4.23
2019-04-01T11:48:52.234Z,4.67
2019-04-01T11:51:32.021Z,4.30
2019-04-01T11:53:47.447Z,4.80
2019-04-01T11:56:14.032Z,4.90
2019-04-01T11:58:40.671Z,5.53
2019-04-01T12:01:07.235Z,5.40
2019-04-01T12:03:33.896Z,4.63
2019-04-01T12:06:00.371Z,5.13
2019-04-01T12:08:27.001Z,4.97
2019-04-01T12:10:53.562Z,4.53
2019-04-01T12:13:20.204Z,10.73
2019-04-01T12:15:46.880Z,7.70
2019-04-01T12:18:13.276Z,5.73
2019-04-01T12:20:39.922Z,5.10
2019-04-01T12:23:06.541Z,4.80
2019-04-01T12:25:33.187Z,4.90
2019-04-01T12:27:59.712Z,4.50
2019-04-01T12:30:26.240Z,4.13
2019-04-01T12:32:52.627Z,5.07
2019-04-01T12:35:19.639Z,5.40
2019-04-01T12:37:46.274Z,4.73
2019-04-01T12:40:13.381Z,5.30
2019-04-01T12:42:39.869Z,5.23
2019-04-01T12:45:07.031Z,4.63
2019-04-01T12:47:34.050Z,7.90
2019-04-01T12:50:00.620Z,6.90
2019-04-01T12:52:27.160Z,5.13
2019-04-01T12:54:53.697Z,5.23
2019-04-01T12:57:20.953Z,5.17
2019-04-01T12:59:47.669Z,5.00
2019-04-01T13:02:17.851Z,4.77
2019-04-01T13:04:42.647Z,5.20
2019-04-01T13:07:09.104Z,4.73
2019-04-01T13:09:35.617Z,4.87
2019-04-01T13:12:05.420Z,4.03
2019-04-01T13:14:32.065Z,4.40
2019-04-01T13:16:58.553Z,5.53
2019-04-01T13:19:25.179Z,5.10
2019-04-01T13:21:51.526Z,4.80
2019-04-01T13:24:18.055Z,4.90
2019-04-01T13:26:44.617Z,4.87
2019-04-01T13:29:11.121Z,4.90
2019-04-01T13:31:37.763Z,5.27
2019-04-01T13:34:04.412Z,5.07
2019-04-01T13:36:31.095Z,3.93
2019-04-01T13:38:57.704Z,4.60
2019-04-01T13:41:25.232Z,5.03
2019-04-01T13:43:52.086Z,4.57
2019-04-01T13:46:19.238Z,4.90
2019-04-01T13:48:57.538Z,5.27
2019-04-01T13:51:14.603Z,4.57
2019-04-01T13:53:41.062Z,4.50
2019-04-01T13:56:10.210Z,5.23
2019-04-01T13:58:35.953Z,5.03
2019-04-01T14:01:02.572Z,4.47
2019-04-01T14:03:29.400Z,4.50
2019-04-01T14:05:56.161Z,4.67
2019-04-01T14:08:23.032Z,5.17
2019-04-01T14:10:49.671Z,6.60
2019-04-01T14:13:16.174Z,6.20
2019-04-01T14:15:42.745Z,5.23
2019-04-01T14:18:09.387Z,4.63
2019-04-01T14:20:36.045Z,4.90
2019-04-01T14:23:02.581Z,5.40
2019-04-01T14:25:29.240Z,5.43
2019-04-01T14:27:55.725Z,5.03
2019-04-01T14:30:22.305Z,4.80
2019-04-01T14:32:48.701Z,5.10
2019-04-01T14:35:15.462Z,5.17
2019-04-01T14:37:41.858Z,5.40
2019-04-01T14:40:09.141Z,4.57
2019-04-01T14:42:37.306Z,7.30
2019-04-01T14:45:05.985Z,10.50
2019-04-01T14:47:32.945Z,5.23
2019-04-01T14:49:59.766Z,4.80
2019-04-01T14:52:32.838Z,5.13
2019-04-01T14:54:55.138Z,5.03
2019-04-01T14:57:21.797Z,5.00
2019-04-01T14:59:48.314Z,5.43
2019-04-01T15:02:15.092Z,5.70
2019-04-01T15:04:41.726Z,5.07
2019-04-01T15:07:08.163Z,5.80
2019-04-01T15:09:34.782Z,7.10
2019-04-01T15:12:01.456Z,5.70
2019-04-01T15:14:27.749Z,10.60
2019-04-01T15:16:54.196Z,8.50
2019-04-01T15:19:20.608Z,5.57
2019-04-01T15:21:47.565Z,5.43
2019-04-01T15:24:13.954Z,5.63
2019-04-01T15:26:40.523Z,5.90
2019-04-01T15:29:07.032Z,4.77
2019-04-01T15:31:33.591Z,4.80
2019-04-01T15:34:00.071Z,4.87
2019-04-01T15:36:27.039Z,6.10
2019-04-01T15:38:53.901Z,5.97
2019-04-01T15:41:20.353Z,4.90
2019-04-01T15:43:46.888Z,5.17
2019-04-01T15:46:13.378Z,5.33
2019-04-01T15:48:40.156Z,5.13
2019-04-01T15:51:07.776Z,5.10
2019-04-01T15:53:34.846Z,5.37
2019-04-01T15:56:01.808Z,5.53
2019-04-01T15:58:28.363Z,5.37
2019-04-01T16:00:54.838Z,8.03
2019-04-01T16:03:21.500Z,6.43
2019-04-01T16:05:48.039Z,5.30
2019-04-01T16:08:14.672Z,4.40
2019-04-01T16:10:41.262Z,4.60
2019-04-01T16:13:08.033Z,5.57
2019-04-01T16:15:34.817Z,6.73
2019-04-01T16:18:02.447Z,12.67
2019-04-01T16:20:29.368Z,61.53
2019-04-01T16:22:56.062Z,16.07
2019-04-01T16:25:22.657Z,7.27
2019-04-01T16:27:49.070Z,5.77
2019-04-01T16:30:15.682Z,4.97
2019-04-01T16:32:42.051Z,5.90
2019-04-01T16:35:09.039Z,4.47
2019-04-01T16:37:35.478Z,5.07
2019-04-01T16:40:05.856Z,4.83
2019-04-01T16:42:31.662Z,5.73
2019-04-01T16:44:58.224Z,5.83
2019-04-01T16:47:24.850Z,5.77
2019-04-01T16:49:51.277Z,5.20
2019-04-01T16:52:17.990Z,5.70
2019-04-01T16:54:55.122Z,6.43
2019-04-01T16:57:21.752Z,5.53
2019-04-01T16:59:48.285Z,8.87
2019-04-01T17:02:18.361Z,14.37
2019-04-01T17:04:46.142Z,38.10
2019-04-01T17:07:12.164Z,31.27
2019-04-01T17:09:39.092Z,45.20
2019-04-01T17:12:05.902Z,38.70
2019-04-01T17:14:32.787Z,12.17
2019-04-01T17:16:59.447Z,7.27
2019-04-01T17:19:27.819Z,12.10
2019-04-01T17:21:54.474Z,8.10
2019-04-01T17:24:21.105Z,22.07
2019-04-01T17:27:02.167Z,23.20
2019-04-01T17:29:31.678Z,10.77
2019-04-01T17:31:57.397Z,6.50
2019-04-01T17:34:23.904Z,5.47
2019-04-01T17:36:50.647Z,5.53
2019-04-01T17:39:17.179Z,5.93
2019-04-01T17:41:46.357Z,9.00
2019-04-01T17:44:14.019Z,6.00
2019-04-01T17:46:40.907Z,5.50
2019-04-01T17:49:07.561Z,6.07
2019-04-01T17:51:34.209Z,5.10
2019-04-01T17:54:01.237Z,7.03
2019-04-01T17:56:28.006Z,9.83
2019-04-01T17:58:54.722Z,8.50
2019-04-01T18:01:21.521Z,6.40
2019-04-01T18:03:48.108Z,5.80
2019-04-01T18:06:14.858Z,5.53
2019-04-01T18:08:41.449Z,5.37
2019-04-01T18:11:08.182Z,5.40
2019-04-01T18:13:34.631Z,5.80
2019-04-01T18:16:01.099Z,5.73
2019-04-01T18:18:28.031Z,5.77
2019-04-01T18:20:54.822Z,5.37
2019-04-01T18:23:22.237Z,5.37
2019-04-01T18:25:49.868Z,5.23
2019-04-01T18:28:16.693Z,5.47
2019-04-01T18:30:43.497Z,5.17
2019-04-01T18:33:10.232Z,6.40
2019-04-01T18:35:36.626Z,5.50
2019-04-01T18:38:03.683Z,5.40
2019-04-01T18:40:33.037Z,5.93
2019-04-01T18:42:59.991Z,5.70
2019-04-01T18:45:26.826Z,5.07
2019-04-01T18:47:53.724Z,5.43
2019-04-01T18:50:20.426Z,5.70
2019-04-01T18:52:47.354Z,5.83
2019-04-01T18:55:14.364Z,6.27
2019-04-01T18:57:41.146Z,5.47
2019-04-01T19:00:08.986Z,6.03
2019-04-01T19:02:35.945Z,5.80
2019-04-01T19:05:03.247Z,5.90
2019-04-01T19:07:30.245Z,6.03
2019-04-01T19:10:05.951Z,5.90
2019-04-01T19:12:25.801Z,6.43
2019-04-01T19:14:52.674Z,10.13
2019-04-01T19:17:19.422Z,7.87
2019-04-01T19:19:48.651Z,6.80
2019-04-01T19:22:14.938Z,6.23
2019-04-01T19:24:41.723Z,36.10
2019-04-01T19:27:08.275Z,61.17
2019-04-01T19:29:35.088Z,14.53
2019-04-01T19:32:01.994Z,8.13
2019-04-01T19:34:28.667Z,7.23
2019-04-01T19:36:55.338Z,6.73
2019-04-01T19:39:23.103Z,6.90
2019-04-01T19:41:49.931Z,7.47
2019-04-01T19:44:16.570Z,6.33
2019-04-01T19:46:43.328Z,7.10
2019-04-01T19:49:10.047Z,7.07
2019-04-01T19:51:36.963Z,6.17
2019-04-01T19:54:03.796Z,6.83
2019-04-01T19:56:31.080Z,6.70
2019-04-01T19:58:58.008Z,6.73
2019-04-01T20:01:25.006Z,6.43
2019-04-01T20:03:51.945Z,6.03
2019-04-01T20:06:18.907Z,6.80
2019-04-01T20:08:47.008Z,6.90
2019-04-01T20:11:15.545Z,6.90
2019-04-01T20:13:42.828Z,6.50
2019-04-01T20:16:10.353Z,6.87
2019-04-01T20:18:37.270Z,7.47
2019-04-01T20:21:03.884Z,6.60
2019-04-01T20:23:30.769Z,7.50
2019-04-01T20:25:57.611Z,6.97
2019-04-01T20:28:24.235Z,6.80
2019-04-01T20:30:51.009Z,6.40
2019-04-01T20:33:18.593Z,6.70
2019-04-01T20:35:45.881Z,7.37
2019-04-01T20:38:12.646Z,7.67
2019-04-01T20:40:39.184Z,8.00
2019-04-01T20:43:05.790Z,7.60
2019-04-01T20:45:32.462Z,7.90
2019-04-01T20:47:59.327Z,7.00
2019-04-01T20:50:25.995Z,7.00
2019-04-01T20:52:52.440Z,7.83
2019-04-01T20:55:19.031Z,7.07
2019-04-01T20:57:46.198Z,7.90
2019-04-01T21:00:13.738Z,7.77
2019-04-01T21:02:40.477Z,8.43
2019-04-01T21:05:07.842Z,7.63
2019-04-01T21:07:34.456Z,8.53
2019-04-01T21:10:01.095Z,8.33
2019-04-01T21:12:27.629Z,8.13
2019-04-01T21:14:56.078Z,7.53
2019-04-01T21:17:23.129Z,7.83
2019-04-01T21:19:50.439Z,8.27
2019-04-01T21:22:16.827Z,8.70
2019-04-01T21:24:43.262Z,8.50
2019-04-01T21:27:09.769Z,9.40
2019-04-01T21:29:36.324Z,8.43
2019-04-01T21:32:03.092Z,8.07
2019-04-01T21:34:29.797Z,9.30
2019-04-01T21:36:56.356Z,7.60
2019-04-01T21:39:22.888Z,7.87
2019-04-01T21:41:49.398Z,8.63
2019-04-01T21:44:15.827Z,7.77
2019-04-01T21:46:43.180Z,8.63
2019-04-01T21:49:10.321Z,8.23
2019-04-01T21:51:36.988Z,8.97
2019-04-01T21:54:03.621Z,8.70
2019-04-01T21:56:30.101Z,8.83
2019-04-01T21:58:56.432Z,8.30
2019-04-01T22:01:23.178Z,8.40
2019-04-01T22:03:49.718Z,8.70
2019-04-01T22:06:16.234Z,9.37
2019-04-01T22:08:42.761Z,9.13
2019-04-01T22:11:09.194Z,9.07
2019-04-01T22:13:35.743Z,8.77
2019-04-01T22:16:02.384Z,9.67
2019-04-01T22:18:28.663Z,9.80
2019-04-01T22:20:55.279Z,9.03
2019-04-01T22:23:21.708Z,8.30
2019-04-01T22:25:48.166Z,10.20
2019-04-01T22:28:14.563Z,9.57
2019-04-01T22:30:41.189Z,9.70
2019-04-01T22:33:07.799Z,11.27
2019-04-01T22:35:38.865Z,9.07
2019-04-01T22:38:03.522Z,9.77
2019-04-01T22:40:30.590Z,9.13
2019-04-01T22:42:57.394Z,9.50
2019-04-01T22:45:23.889Z,9.93
2019-04-01T22:47:50.370Z,9.13
2019-04-01T22:50:16.871Z,10.17
2019-04-01T22:52:43.277Z,8.50
2019-04-01T22:55:10.062Z,8.50
2019-04-01T22:57:36.582Z,9.90
2019-04-01T23:00:04.558Z,9.40
2019-04-01T23:02:30.897Z,8.90
2019-04-01T23:04:57.401Z,9.00
2019-04-01T23:07:23.716Z,9.00
2019-04-01T23:09:50.040Z,8.37
2019-04-01T23:12:16.555Z,9.50
2019-04-01T23:14:43.941Z,9.73
2019-04-01T23:17:10.531Z,9.20
2019-04-01T23:19:36.932Z,10.13
2019-04-01T23:22:03.720Z,9.10
2019-04-01T23:24:30.224Z,9.00
2019-04-01T23:26:56.768Z,9.23
2019-04-01T23:29:23.178Z,9.20
2019-04-01T23:31:49.602Z,9.73
2019-04-01T23:34:15.933Z,9.17
2019-04-01T23:36:42.412Z,10.53
2019-04-01T23:39:09.002Z,10.53
2019-04-01T23:41:35.378Z,9.40
2019-04-01T23:44:02.046Z,10.40
2019-04-01T23:46:28.576Z,9.43
2019-04-01T23:48:55.027Z,9.57
2019-04-01T23:51:21.415Z,9.67
2019-04-01T23:53:47.919Z,9.83
2019-04-01T23:56:14.393Z,9.10
2019-04-01T23:58:40.802Z,9.17
